METAR LDZA 091800Z 07004KT 350V110 6000 -RA SCT003 09/08 Q1006 TEMPO 05010KT =
METAR LDZA 091730Z 06005KT 030V100 4000 -RA BR FEW008 08/08 Q1006 NOSIG =
METAR LDZA 091700Z 07003KT 010V120 1500 -RA BR FEW018 08/08 Q1006 RERA BECMG 05006KT 4000 =
METAR LDZA 091630Z VRB02KT 1000 R05/1800U R23/1700D RA BR FEW018 SCT048 08/07 Q1006 BECMG 05006KT TEMPO 0600 -RA FG =
METAR LDZA 091600Z VRB01KT 1200 R05/1900N R23/1900N RA BR FEW018 OVC043 08/08 Q1006 BECMG 05006KT 4000 -RA BR TEMPO TL1630 0600 RA FG =
METAR LDZA 091530Z VRB02KT 1200 R05/P2000N R23/P2000N RA BR FEW018 OVC038 08/07 Q1006 BECMG 05006KT 4000 -RA BR TEMPO TL1630 0600 RA FG =
METAR LDZA 091500Z 24003KT 210V270 2500 RA BR FEW018 OVC048 09/08 Q1006 BECMG 05006KT 5000 -RA BR BKN010 =
METAR LDZA 091430Z VRB02KT 4000 -RA BR FEW018 09/08 Q1006 TEMPO RA BR BKN010 =
METAR LDZA 091400Z 10004KT 070V130 3000 -RA BR FEW018 09/08 Q1006 TEMPO RA BR BKN010 =
METAR LDZA 091330Z 06004KT 020V110 3500 -RA BR FEW018 OVC048 09/08 Q1006 TEMPO RA BR BKN010 =
METAR LDZA 091300Z 01005KT 310V050 3000 -RA BR FEW045 09/08 Q1006 BECMG 05006KT TEMPO RA BR =
METAR COR LDZA 091230Z 02004KT 350V050 5000 -RA FEW045 09/08 Q1007 BECMG 05006KT TEMPO 4000 SHRA FEW035TCU OVC040 =
METAR LDZA 091200Z 00000KT 7000 -RA FEW040 09/08 Q1007 BECMG 05006KT TEMPO FM1200 4000 RA =
METAR LDZA 091130Z VRB01KT 9999 -RA FEW040 08/07 Q1008 TEMPO RA =
METAR LDZA 091100Z VRB02KT 9999 FEW040 08/07 Q1008 TEMPO RA =
METAR LDZA 091030Z VRB01KT 9999 FEW040 08/07 Q1008 NOSIG =
METAR LDZA 091000Z 11004KT 9999 FEW040 08/07 Q1008 NOSIG =
METAR LDZA 090930Z VRB02KT 9999 -RA FEW043 07/06 Q1009 NOSIG =
METAR LDZA 090900Z 02005KT 360V080 9999 FEW047 07/06 Q1009 NOSIG =
METAR LDZA 090830Z VRB02KT 9999 -RA FEW048 07/06 Q1009 NOSIG =
METAR LDZA 090800Z 01003KT 9999 -RA FEW048 06/05 Q1009 NOSIG =
METAR LDZA 090730Z VRB02KT 9999 FEW048 06/05 Q1009 NOSIG =
METAR LDZA 090700Z VRB01KT 9999 FEW048 06/05 Q1009 NOSIG =
METAR LDZA 090630Z VRB01KT 9999 BKN048 06/05 Q1009 NOSIG =
METAR LDZA 090600Z 05003KT 020V090 9999 FEW048 06/05 Q1009 NOSIG =
METAR LDZA 090530Z 03006KT CAVOK 06/05 Q1009 NOSIG =
METAR LDZA 090500Z VRB02KT CAVOK 07/06 Q1009 NOSIG =
METAR LDZA 090430Z 25003KT 9999 FEW045 07/06 Q1009 NOSIG =
METAR LDZA 090400Z 29003KT 260V320 9999 SCT045 06/06 Q1009 NOSIG =
METAR LDZA 090330Z VRB02KT 9999 BKN045 06/05 Q1009 NOSIG =
METAR LDZA 090300Z 26004KT 170V290 9999 BKN045 06/05 Q1009 NOSIG =
METAR LDZA 090230Z 26003KT 9999 BKN040 06/06 Q1009 NOSIG =
METAR LDZA 090200Z 31003KT 260V350 9999 BKN045 06/05 Q1010 NOSIG =
METAR LDZA 090130Z 26003KT 200V270 9999 BKN045 06/05 Q1010 NOSIG =
METAR LDZA 090100Z 24003KT CAVOK 06/05 Q1010 NOSIG =
METAR LDZA 090030Z 25003KT 210V300 CAVOK 05/05 Q1011 NOSIG =
METAR LDZA 090000Z 23004KT 200V270 CAVOK 05/05 Q1011 NOSIG =
METAR LDZA 082330Z 25008KT CAVOK 05/05 Q1012 BECMG 23005KT =
METAR LDZA 082300Z 25006KT 210V280 CAVOK 05/04 Q1012 NOSIG =
METAR LDZA 082230Z 24006KT 200V260 CAVOK 04/03 Q1012 NOSIG =
METAR LDZA 082200Z 24008KT CAVOK 04/04 Q1012 NOSIG =
METAR LDZA 082130Z 24006KT CAVOK 02/02 Q1013 NOSIG =
METAR LDZA 082100Z 24006KT CAVOK 02/01 Q1013 NOSIG =
METAR LDZA 082030Z 22004KT CAVOK 02/01 Q1013 NOSIG =
METAR LDZA 082000Z 23005KT CAVOK 01/01 Q1014 NOSIG =
METAR LDZA 081930Z VRB01KT 9999 MIFG FEW002 M00/M01 Q1014 NOSIG =
METAR LDZA 081900Z 21006KT CAVOK 00/M00 Q1014 NOSIG =
METAR LDZA 081830Z 22006KT 6000 FEW002 00/M00 Q1015 NOSIG =
METAR LDZA 081800Z VRB02KT 0800 R05/1700U R23/P2000N BCFG SCT001 00/00 Q1015 TEMPO 23006KT 1500 BR =
METAR LDZA 081730Z VRB02KT 0800 R05/1700D R23/1900U BCFG SCT002 01/00 Q1015 TEMPO 23006KT 3000 BR =
METAR LDZA 081700Z VRB02KT 0200 R05/0600N R23/0650N FG VV002 02/01 Q1015 NOSIG =
METAR LDZA 081630Z VRB02KT 0200 R05/0450N R23/0600D FG VV001 03/02 Q1015 TEMPO 23006KT 1000 BR BKN004 =
METAR LDZA 081600Z 23003KT 200V260 0200 R05/0750N R23/0800N FG VV002 03/03 Q1016 NOSIG =
METAR LDZA 081530Z VRB02KT 0200 R05/1100U R23/0600N FG VV002 04/03 Q1016 NOSIG =
METAR LDZA 081500Z VRB02KT 0200 R05/0550N R23/0450N FG VV002 03/03 Q1016 NOSIG =
METAR LDZA 081430Z VRB02KT 0200 R05/0500N R23/0450N FG VV002 03/02 Q1016 NOSIG =
METAR LDZA 081400Z VRB01KT 0200 R05/0500N R23/0500N FG VV002 03/02 Q1017 NOSIG =
METAR LDZA 081330Z VRB01KT 0300 R05/0600N R23/0700N FG VV002 03/02 Q1017 NOSIG =
METAR LDZA 081300Z VRB02KT 0300 R05/0700N R23/0650N FG VV002 03/02 Q1017 NOSIG =
METAR LDZA 081230Z VRB02KT 0300 R05/0700N R23/0750N FG VV002 02/02 Q1017 NOSIG =
METAR LDZA 081200Z VRB01KT 0300 R05/0650N R23/0900U FG VV002 02/01 Q1018 TEMPO 0500 =
METAR LDZA 081130Z VRB01KT 0300 R05/0700N R23/0700N FG VV002 01/01 Q1018 BECMG 0500 =
METAR LDZA 081100Z VRB01KT 0300 R05/0550N R23/0600N FG VV002 01/01 Q1019 BECMG 0500 =
METAR LDZA 081030Z VRB01KT 0200 R05/0450N R23/0500N FG VV001 01/00 Q1019 BECMG 0500 =
METAR LDZA 081000Z VRB01KT 0200 R05/0400N R23/0400N FG VV001 01/00 Q1020 NOSIG =
METAR LDZA 080930Z VRB01KT 0200 R05/0400N R23/0375N FZFG VV002 00/M00 Q1020 NOSIG =
METAR LDZA 080900Z 00000KT 0200 R05/0400N R23/0400N FZFG VV002 M00/M00 Q1020 NOSIG =
METAR LDZA 080830Z VRB01KT 0200 R05/0450N R23/0375N FZFG VV002 M00/M01 Q1020 NOSIG =
METAR LDZA 080800Z VRB01KT 0200 R05/0450N R23/0450N FZFG VV002 M01/M01 Q1020 NOSIG =
METAR LDZA 080730Z VRB02KT 0200 R05/0500N R23/0500N FZFG VV001 M01/M01 Q1020 TEMPO 0100 VV001 =
METAR LDZA 080700Z VRB01KT 0200 R05/0450N R23/0550N FZFG VV002 M01/M01 Q1020 TEMPO 0100 VV001 =
METAR LDZA 080630Z VRB01KT 0300 R05/0700N R23/0750N FZFG VV002 M01/M01 Q1020 TEMPO 0100 VV001 =